Rowlett, Texas
Current Conditions -  °F | °C
As of 3:55 AM on Sunday 23 Nov 2014 (Local Time) from KF46 Reporting Station
Haze Haze  
Wind Chill: 57°   Ceiling: Unl
Heat Index: 57°   Visibility: 5mi
Dew Point: 57°   Wind: 3mph
Humidity: 100%   Direction: 160°SSE
Pressure: 29.6"   Gusts: NA
Location:  32.9°N, 96.57°W
Report Text: KF46 230955Z AUTO 16003KT 5SM BR CLR 14/14 A2960 RMK AO2 T01370137
Loading
Personal Weather Stations






























Interactive Weather Map New forecast layout! Learn more

10-Day Weather Forecast

Advertisements
Track Severe Weather on mobile